Aureola, Iowa
Current Conditions -  °F | °C
As of 12:15 PM on Wednesday 28 Jan 2015 (Local Time) from KCCY Reporting Station
Haze Haze  
Wind Chill: 19°   Ceiling: 1100
Heat Index: 32°   Visibility: 6mi
Dew Point: 32°   Wind: 22mph
Humidity: 100%   Direction: 140°SE
Pressure: 29.9"   Gusts: NA
Location:  42.9618°N, 92.9184°W
Report Text: KCCY 281815Z AUTO 14019KT 6SM BR OVC011 00/00 A2990 RMK AO2
Loading
Personal Weather Stations






























Interactive Weather Map New forecast layout! Learn more

10-Day Weather Forecast

Advertisements
Track Severe Weather on mobile